sensor_id;sensor_type;location;lat;lon;timestamp;temperature;humidity
60868;DHT22;46702;48.370;10.794;2022-07-29T00:00:42;19.40;99.90
60868;DHT22;46702;48.370;10.794;2022-07-29T00:03:10;19.50;99.90
60868;DHT22;46702;48.370;10.794;2022-07-29T00:05:35;19.40;99.90
60868;DHT22;46702;48.370;10.794;2022-07-29T00:08:01;19.20;99.90
60868;DHT22;46702;48.370;10.794;2022-07-29T00:10:27;19.10;99.90
60868;DHT22;46702;48.370;10.794;2022-07-29T00:12:52;19.00;99.90
60868;DHT22;46702;48.370;10.794;2022-07-29T00:15:18;19.20;99.90
60868;DHT22;46702;48.370;10.794;2022-07-29T00:17:43;19.30;99.90
60868;DHT22;46702;48.370;10.794;2022-07-29T00:20:09;19.20;99.90
60868;DHT22;46702;48.370;10.794;2022-07-29T00:22:38;19.00;99.90
60868;DHT22;46702;48.370;10.794;2022-07-29T00:25:04;18.70;99.90
60868;DHT22;46702;48.370;10.794;2022-07-29T00:27:30;18.80;99.90
60868;DHT22;46702;48.370;10.794;2022-07-29T00:29:55;19.00;99.90
60868;DHT22;46702;48.370;10.794;2022-07-29T00:32:21;19.00;99.90
60868;DHT22;46702;48.370;10.794;2022-07-29T00:34:46;19.10;99.90
60868;DHT22;46702;48.370;10.794;2022-07-29T00:37:31;19.10;99.90
60868;DHT22;46702;48.370;10.794;2022-07-29T00:39:56;19.10;99.90
60868;DHT22;46702;48.370;10.794;2022-07-29T00:42:22;19.20;99.90
60868;DHT22;46702;48.370;10.794;2022-07-29T00:44:48;19.10;99.90
60868;DHT22;46702;48.370;10.794;2022-07-29T00:47:13;19.00;99.90
60868;DHT22;46702;48.370;10.794;2022-07-29T00:49:41;18.80;99.90
60868;DHT22;46702;48.370;10.794;2022-07-29T00:52:08;18.70;99.90
60868;DHT22;46702;48.370;10.794;2022-07-29T00:54:34;18.80;99.90
60868;DHT22;46702;48.370;10.794;2022-07-29T00:57:00;18.80;99.90
60868;DHT22;46702;48.370;10.794;2022-07-29T00:59:26;18.60;99.90
60868;DHT22;46702;48.370;10.794;2022-07-29T01:01:53;18.60;99.90
60868;DHT22;46702;48.370;10.794;2022-07-29T01:04:20;18.70;99.90
60868;DHT22;46702;48.370;10.794;2022-07-29T01:06:47;18.70;99.90
60868;DHT22;46702;48.370;10.794;2022-07-29T01:09:14;18.70;99.90
60868;DHT22;46702;48.370;10.794;2022-07-29T01:11:42;18.60;99.90
60868;DHT22;46702;48.370;10.794;2022-07-29T01:14:08;18.50;99.90
60868;DHT22;46702;48.370;10.794;2022-07-29T01:16:45;18.60;99.90
60868;DHT22;46702;48.370;10.794;2022-07-29T01:30:42;18.50;99.90
60868;DHT22;46702;48.370;10.794;2022-07-29T01:33:13;18.50;99.90
60868;DHT22;46702;48.370;10.794;2022-07-29T01:36:01;18.50;99.90
60868;DHT22;46702;48.370;10.794;2022-07-29T01:38:29;18.40;99.90
60868;DHT22;46702;48.370;10.794;2022-07-29T01:41:02;18.20;99.90
60868;DHT22;46702;48.370;10.794;2022-07-29T01:43:44;18.20;99.90
60868;DHT22;46702;48.370;10.794;2022-07-29T01:46:20;18.20;99.90
60868;DHT22;46702;48.370;10.794;2022-07-29T01:48:55;18.20;99.90
60868;DHT22;46702;48.370;10.794;2022-07-29T01:51:36;18.00;99.90
60868;DHT22;46702;48.370;10.794;2022-07-29T01:56:59;18.20;99.90
60868;DHT22;46702;48.370;10.794;2022-07-29T01:59:26;18.10;99.90
60868;DHT22;46702;48.370;10.794;2022-07-29T02:01:54;18.10;99.90
60868;DHT22;46702;48.370;10.794;2022-07-29T02:04:20;18.10;99.90
60868;DHT22;46702;48.370;10.794;2022-07-29T02:06:49;18.20;99.90
60868;DHT22;46702;48.370;10.794;2022-07-29T02:09:17;18.10;99.90
60868;DHT22;46702;48.370;10.794;2022-07-29T02:11:49;18.00;99.90
60868;DHT22;46702;48.370;10.794;2022-07-29T02:14:18;17.70;99.90
60868;DHT22;46702;48.370;10.794;2022-07-29T02:16:45;17.50;99.90
60868;DHT22;46702;48.370;10.794;2022-07-29T02:19:12;17.50;99.90
60868;DHT22;46702;48.370;10.794;2022-07-29T02:21:40;17.50;99.90
60868;DHT22;46702;48.370;10.794;2022-07-29T02:24:07;17.50;99.90
60868;DHT22;46702;48.370;10.794;2022-07-29T02:26:33;17.50;99.90
60868;DHT22;46702;48.370;10.794;2022-07-29T02:29:01;17.60;99.90
60868;DHT22;46702;48.370;10.794;2022-07-29T02:31:33;17.70;99.90
60868;DHT22;46702;48.370;10.794;2022-07-29T02:34:00;17.70;99.90
60868;DHT22;46702;48.370;10.794;2022-07-29T02:36:28;17.80;99.90
60868;DHT22;46702;48.370;10.794;2022-07-29T02:38:56;17.90;99.90
60868;DHT22;46702;48.370;10.794;2022-07-29T02:41:43;18.00;99.90
60868;DHT22;46702;48.370;10.794;2022-07-29T02:44:20;18.10;99.90
60868;DHT22;46702;48.370;10.794;2022-07-29T02:47:10;18.10;99.90
60868;DHT22;46702;48.370;10.794;2022-07-29T02:49:36;18.00;99.90
60868;DHT22;46702;48.370;10.794;2022-07-29T02:52:15;17.90;99.90
60868;DHT22;46702;48.370;10.794;2022-07-29T02:55:00;17.80;99.90
60868;DHT22;46702;48.370;10.794;2022-07-29T02:57:33;17.80;99.90
60868;DHT22;46702;48.370;10.794;2022-07-29T03:00:04;17.90;99.90
60868;DHT22;46702;48.370;10.794;2022-07-29T03:02:34;18.00;99.90
60868;DHT22;46702;48.370;10.794;2022-07-29T03:05:02;18.00;99.90
60868;DHT22;46702;48.370;10.794;2022-07-29T03:07:29;18.10;99.90
60868;DHT22;46702;48.370;10.794;2022-07-29T03:09:54;18.10;99.90
60868;DHT22;46702;48.370;10.794;2022-07-29T03:12:21;18.10;99.90
60868;DHT22;46702;48.370;10.794;2022-07-29T03:14:47;18.00;99.90
60868;DHT22;46702;48.370;10.794;2022-07-29T03:17:14;18.00;99.90
60868;DHT22;46702;48.370;10.794;2022-07-29T03:19:40;18.10;99.90
60868;DHT22;46702;48.370;10.794;2022-07-29T03:22:06;18.10;99.90
60868;DHT22;46702;48.370;10.794;2022-07-29T03:24:35;18.10;99.90
60868;DHT22;46702;48.370;10.794;2022-07-29T03:27:02;18.10;99.90
60868;DHT22;46702;48.370;10.794;2022-07-29T03:29:28;18.10;99.90
60868;DHT22;46702;48.370;10.794;2022-07-29T03:31:54;18.10;99.90
60868;DHT22;46702;48.370;10.794;2022-07-29T03:34:20;18.10;99.90
60868;DHT22;46702;48.370;10.794;2022-07-29T03:36:47;18.00;99.90
60868;DHT22;46702;48.370;10.794;2022-07-29T03:39:15;17.90;99.90
60868;DHT22;46702;48.370;10.794;2022-07-29T03:41:42;18.00;99.90
60868;DHT22;46702;48.370;10.794;2022-07-29T03:44:09;18.00;99.90
60868;DHT22;46702;48.370;10.794;2022-07-29T03:46:36;17.90;99.90
60868;DHT22;46702;48.370;10.794;2022-07-29T03:49:04;17.90;99.90
60868;DHT22;46702;48.370;10.794;2022-07-29T03:51:30;17.90;99.90
60868;DHT22;46702;48.370;10.794;2022-07-29T03:53:56;17.70;99.90
60868;DHT22;46702;48.370;10.794;2022-07-29T03:56:23;17.50;99.90
60868;DHT22;46702;48.370;10.794;2022-07-29T03:58:52;17.40;99.90
60868;DHT22;46702;48.370;10.794;2022-07-29T04:01:19;17.30;99.90
60868;DHT22;46702;48.370;10.794;2022-07-29T04:03:45;17.40;99.90
60868;DHT22;46702;48.370;10.794;2022-07-29T04:06:11;17.50;99.90
60868;DHT22;46702;48.370;10.794;2022-07-29T04:08:37;17.50;99.90
60868;DHT22;46702;48.370;10.794;2022-07-29T04:11:04;17.60;99.90
60868;DHT22;46702;48.370;10.794;2022-07-29T04:13:30;17.70;99.90
60868;DHT22;46702;48.370;10.794;2022-07-29T04:15:57;17.60;99.90
60868;DHT22;46702;48.370;10.794;2022-07-29T04:18:22;17.70;99.90
60868;DHT22;46702;48.370;10.794;2022-07-29T04:20:48;17.50;99.90
60868;DHT22;46702;48.370;10.794;2022-07-29T04:23:14;17.50;99.90
60868;DHT22;46702;48.370;10.794;2022-07-29T04:25:40;17.40;99.90
60868;DHT22;46702;48.370;10.794;2022-07-29T04:28:07;17.30;99.90
60868;DHT22;46702;48.370;10.794;2022-07-29T04:30:34;17.30;99.90
60868;DHT22;46702;48.370;10.794;2022-07-29T04:33:01;17.30;99.90
60868;DHT22;46702;48.370;10.794;2022-07-29T04:35:29;17.30;99.90
60868;DHT22;46702;48.370;10.794;2022-07-29T04:37:54;17.30;99.90
60868;DHT22;46702;48.370;10.794;2022-07-29T04:40:20;17.30;99.90
60868;DHT22;46702;48.370;10.794;2022-07-29T04:42:46;17.30;99.90
60868;DHT22;46702;48.370;10.794;2022-07-29T04:45:11;17.40;99.90
60868;DHT22;46702;48.370;10.794;2022-07-29T04:47:37;17.60;99.90
60868;DHT22;46702;48.370;10.794;2022-07-29T04:50:03;17.70;99.90
60868;DHT22;46702;48.370;10.794;2022-07-29T04:52:30;17.80;99.90
60868;DHT22;46702;48.370;10.794;2022-07-29T04:54:56;17.80;99.90
60868;DHT22;46702;48.370;10.794;2022-07-29T04:57:21;17.90;99.90
60868;DHT22;46702;48.370;10.794;2022-07-29T04:59:47;18.00;99.90
60868;DHT22;46702;48.370;10.794;2022-07-29T05:02:14;18.00;99.90
60868;DHT22;46702;48.370;10.794;2022-07-29T05:04:39;18.10;99.90
60868;DHT22;46702;48.370;10.794;2022-07-29T05:07:05;18.10;99.90
60868;DHT22;46702;48.370;10.794;2022-07-29T05:09:30;18.30;99.90
60868;DHT22;46702;48.370;10.794;2022-07-29T05:11:57;18.20;99.90
60868;DHT22;46702;48.370;10.794;2022-07-29T05:14:23;18.20;99.90
60868;DHT22;46702;48.370;10.794;2022-07-29T05:16:48;18.10;99.90
60868;DHT22;46702;48.370;10.794;2022-07-29T05:19:16;18.20;99.90
60868;DHT22;46702;48.370;10.794;2022-07-29T05:21:42;18.10;99.90
60868;DHT22;46702;48.370;10.794;2022-07-29T05:24:07;18.10;99.90
60868;DHT22;46702;48.370;10.794;2022-07-29T05:26:33;18.10;99.90
60868;DHT22;46702;48.370;10.794;2022-07-29T05:28:59;18.20;99.90
60868;DHT22;46702;48.370;10.794;2022-07-29T05:31:24;18.30;99.90
60868;DHT22;46702;48.370;10.794;2022-07-29T05:33:50;18.40;99.90
60868;DHT22;46702;48.370;10.794;2022-07-29T05:36:15;18.40;99.90
60868;DHT22;46702;48.370;10.794;2022-07-29T05:38:41;18.50;99.90
60868;DHT22;46702;48.370;10.794;2022-07-29T05:41:07;18.60;99.90
60868;DHT22;46702;48.370;10.794;2022-07-29T05:43:32;18.70;99.90
60868;DHT22;46702;48.370;10.794;2022-07-29T05:45:58;18.70;99.90
60868;DHT22;46702;48.370;10.794;2022-07-29T05:48:24;18.80;99.90
60868;DHT22;46702;48.370;10.794;2022-07-29T05:50:49;18.80;99.90
60868;DHT22;46702;48.370;10.794;2022-07-29T05:53:15;18.80;99.90
60868;DHT22;46702;48.370;10.794;2022-07-29T05:55:41;18.80;99.90
60868;DHT22;46702;48.370;10.794;2022-07-29T05:58:07;18.90;99.90
60868;DHT22;46702;48.370;10.794;2022-07-29T06:00:32;19.00;99.90
60868;DHT22;46702;48.370;10.794;2022-07-29T06:02:58;19.20;99.90
60868;DHT22;46702;48.370;10.794;2022-07-29T06:05:23;19.30;99.90
60868;DHT22;46702;48.370;10.794;2022-07-29T06:07:49;19.30;99.90
60868;DHT22;46702;48.370;10.794;2022-07-29T06:10:14;19.50;99.90
60868;DHT22;46702;48.370;10.794;2022-07-29T06:12:40;19.70;99.90
60868;DHT22;46702;48.370;10.794;2022-07-29T06:15:06;19.80;99.90
60868;DHT22;46702;48.370;10.794;2022-07-29T06:17:32;19.90;99.90
60868;DHT22;46702;48.370;10.794;2022-07-29T06:19:57;19.60;99.90
60868;DHT22;46702;48.370;10.794;2022-07-29T06:22:23;19.80;99.90
60868;DHT22;46702;48.370;10.794;2022-07-29T06:24:49;20.00;99.90
60868;DHT22;46702;48.370;10.794;2022-07-29T06:27:15;20.10;99.90
60868;DHT22;46702;48.370;10.794;2022-07-29T06:29:42;20.20;99.90
60868;DHT22;46702;48.370;10.794;2022-07-29T06:32:07;20.50;99.90
60868;DHT22;46702;48.370;10.794;2022-07-29T06:34:35;20.60;99.90
60868;DHT22;46702;48.370;10.794;2022-07-29T06:37:00;20.60;99.90
60868;DHT22;46702;48.370;10.794;2022-07-29T06:39:30;20.70;99.90
60868;DHT22;46702;48.370;10.794;2022-07-29T06:41:56;20.70;99.90
60868;DHT22;46702;48.370;10.794;2022-07-29T06:44:21;20.80;99.90
60868;DHT22;46702;48.370;10.794;2022-07-29T06:46:47;21.00;99.90
60868;DHT22;46702;48.370;10.794;2022-07-29T06:49:15;21.20;99.90
60868;DHT22;46702;48.370;10.794;2022-07-29T06:51:40;21.20;99.90
60868;DHT22;46702;48.370;10.794;2022-07-29T06:54:06;21.30;99.90
60868;DHT22;46702;48.370;10.794;2022-07-29T06:56:33;21.20;99.90
60868;DHT22;46702;48.370;10.794;2022-07-29T06:58:59;21.30;99.90
60868;DHT22;46702;48.370;10.794;2022-07-29T07:01:24;21.30;99.90
60868;DHT22;46702;48.370;10.794;2022-07-29T07:03:50;21.40;99.90
60868;DHT22;46702;48.370;10.794;2022-07-29T07:06:15;21.60;99.90
60868;DHT22;46702;48.370;10.794;2022-07-29T07:08:41;21.30;99.90
60868;DHT22;46702;48.370;10.794;2022-07-29T07:11:08;21.30;99.90
60868;DHT22;46702;48.370;10.794;2022-07-29T07:13:33;21.20;99.90
60868;DHT22;46702;48.370;10.794;2022-07-29T07:16:01;21.50;99.90
60868;DHT22;46702;48.370;10.794;2022-07-29T07:18:26;21.50;99.90
60868;DHT22;46702;48.370;10.794;2022-07-29T07:20:53;21.30;99.90
60868;DHT22;46702;48.370;10.794;2022-07-29T07:23:18;21.40;99.90
60868;DHT22;46702;48.370;10.794;2022-07-29T07:25:44;21.50;99.90
60868;DHT22;46702;48.370;10.794;2022-07-29T07:28:10;21.60;99.90
60868;DHT22;46702;48.370;10.794;2022-07-29T07:30:36;21.60;99.90
60868;DHT22;46702;48.370;10.794;2022-07-29T07:33:02;21.40;99.90
60868;DHT22;46702;48.370;10.794;2022-07-29T07:35:28;21.50;99.90
60868;DHT22;46702;48.370;10.794;2022-07-29T07:37:55;21.50;99.90
60868;DHT22;46702;48.370;10.794;2022-07-29T07:40:20;21.70;99.90
60868;DHT22;46702;48.370;10.794;2022-07-29T07:42:46;21.70;99.90
60868;DHT22;46702;48.370;10.794;2022-07-29T07:45:11;21.60;99.90
60868;DHT22;46702;48.370;10.794;2022-07-29T07:47:38;21.70;99.90
60868;DHT22;46702;48.370;10.794;2022-07-29T07:50:05;21.70;99.90
60868;DHT22;46702;48.370;10.794;2022-07-29T07:52:31;21.60;99.90
60868;DHT22;46702;48.370;10.794;2022-07-29T07:54:57;21.70;99.90
60868;DHT22;46702;48.370;10.794;2022-07-29T07:57:23;21.90;99.90
60868;DHT22;46702;48.370;10.794;2022-07-29T07:59:48;21.50;99.90
60868;DHT22;46702;48.370;10.794;2022-07-29T08:02:14;21.40;99.90
60868;DHT22;46702;48.370;10.794;2022-07-29T08:04:40;21.50;99.90
60868;DHT22;46702;48.370;10.794;2022-07-29T08:07:07;21.30;99.90
60868;DHT22;46702;48.370;10.794;2022-07-29T08:09:33;21.40;99.90
60868;DHT22;46702;48.370;10.794;2022-07-29T08:12:00;21.30;99.90
60868;DHT22;46702;48.370;10.794;2022-07-29T08:14:27;21.40;99.90
60868;DHT22;46702;48.370;10.794;2022-07-29T08:16:53;21.60;99.90
60868;DHT22;46702;48.370;10.794;2022-07-29T08:19:19;21.60;99.90
60868;DHT22;46702;48.370;10.794;2022-07-29T08:21:44;21.50;99.90
60868;DHT22;46702;48.370;10.794;2022-07-29T08:24:10;21.70;99.90
60868;DHT22;46702;48.370;10.794;2022-07-29T08:26:54;21.70;99.90
60868;DHT22;46702;48.370;10.794;2022-07-29T08:29:20;21.80;99.90
60868;DHT22;46702;48.370;10.794;2022-07-29T08:31:46;21.70;99.90
60868;DHT22;46702;48.370;10.794;2022-07-29T08:34:11;21.70;99.90
60868;DHT22;46702;48.370;10.794;2022-07-29T08:36:38;21.70;99.90
60868;DHT22;46702;48.370;10.794;2022-07-29T08:39:04;21.60;99.90
60868;DHT22;46702;48.370;10.794;2022-07-29T08:41:29;21.60;99.90
60868;DHT22;46702;48.370;10.794;2022-07-29T08:43:55;21.50;99.90
60868;DHT22;46702;48.370;10.794;2022-07-29T08:46:22;21.40;99.90
60868;DHT22;46702;48.370;10.794;2022-07-29T08:48:48;21.40;99.90
60868;DHT22;46702;48.370;10.794;2022-07-29T08:51:15;21.40;99.90
60868;DHT22;46702;48.370;10.794;2022-07-29T08:53:42;21.50;99.90
60868;DHT22;46702;48.370;10.794;2022-07-29T08:56:11;21.70;99.90
60868;DHT22;46702;48.370;10.794;2022-07-29T08:58:37;21.80;99.90
60868;DHT22;46702;48.370;10.794;2022-07-29T09:01:03;21.90;99.90
60868;DHT22;46702;48.370;10.794;2022-07-29T09:03:31;22.10;99.90
60868;DHT22;46702;48.370;10.794;2022-07-29T09:05:58;21.90;99.90
60868;DHT22;46702;48.370;10.794;2022-07-29T09:08:24;21.90;99.90
60868;DHT22;46702;48.370;10.794;2022-07-29T09:10:50;22.10;99.90
60868;DHT22;46702;48.370;10.794;2022-07-29T09:13:16;22.10;99.90
60868;DHT22;46702;48.370;10.794;2022-07-29T09:15:42;22.10;99.90
60868;DHT22;46702;48.370;10.794;2022-07-29T09:18:08;22.20;99.90
60868;DHT22;46702;48.370;10.794;2022-07-29T09:20:33;22.20;99.90
60868;DHT22;46702;48.370;10.794;2022-07-29T09:23:28;22.50;99.90
60868;DHT22;46702;48.370;10.794;2022-07-29T09:25:54;23.00;99.90
60868;DHT22;46702;48.370;10.794;2022-07-29T09:28:20;22.80;97.40
60868;DHT22;46702;48.370;10.794;2022-07-29T09:30:55;22.60;99.60
60868;DHT22;46702;48.370;10.794;2022-07-29T09:33:22;22.70;99.90
60868;DHT22;46702;48.370;10.794;2022-07-29T09:36:04;22.80;99.90
60868;DHT22;46702;48.370;10.794;2022-07-29T09:38:31;22.80;99.90
60868;DHT22;46702;48.370;10.794;2022-07-29T09:41:01;22.90;99.90
60868;DHT22;46702;48.370;10.794;2022-07-29T09:43:27;23.20;99.60
60868;DHT22;46702;48.370;10.794;2022-07-29T09:45:53;23.70;97.20
60868;DHT22;46702;48.370;10.794;2022-07-29T09:48:22;24.10;95.50
60868;DHT22;46702;48.370;10.794;2022-07-29T09:50:49;23.80;92.40
60868;DHT22;46702;48.370;10.794;2022-07-29T09:53:36;23.40;93.50
60868;DHT22;46702;48.370;10.794;2022-07-29T09:56:03;23.40;92.30
60868;DHT22;46702;48.370;10.794;2022-07-29T09:58:29;23.40;93.30
60868;DHT22;46702;48.370;10.794;2022-07-29T10:00:55;23.40;94.60
60868;DHT22;46702;48.370;10.794;2022-07-29T10:03:21;23.60;93.70
60868;DHT22;46702;48.370;10.794;2022-07-29T10:08:30;23.90;95.10
60868;DHT22;46702;48.370;10.794;2022-07-29T10:11:18;24.50;95.10
60868;DHT22;46702;48.370;10.794;2022-07-29T10:13:47;24.50;91.80
60868;DHT22;46702;48.370;10.794;2022-07-29T10:16:14;24.30;91.50
60868;DHT22;46702;48.370;10.794;2022-07-29T10:18:41;24.20;94.00
60868;DHT22;46702;48.370;10.794;2022-07-29T10:21:07;24.50;93.40
60868;DHT22;46702;48.370;10.794;2022-07-29T10:23:34;24.30;93.00
60868;DHT22;46702;48.370;10.794;2022-07-29T10:26:02;24.40;93.10
60868;DHT22;46702;48.370;10.794;2022-07-29T10:28:32;24.30;95.00
60868;DHT22;46702;48.370;10.794;2022-07-29T10:31:05;24.60;94.30
60868;DHT22;46702;48.370;10.794;2022-07-29T10:34:05;24.60;92.20
60868;DHT22;46702;48.370;10.794;2022-07-29T10:36:46;24.30;91.60
60868;DHT22;46702;48.370;10.794;2022-07-29T10:42:22;24.90;93.70
60868;DHT22;46702;48.370;10.794;2022-07-29T10:44:52;25.00;90.40
60868;DHT22;46702;48.370;10.794;2022-07-29T10:47:25;24.90;90.90
60868;DHT22;46702;48.370;10.794;2022-07-29T10:49:59;25.10;92.60
60868;DHT22;46702;48.370;10.794;2022-07-29T10:52:35;25.30;88.90
60868;DHT22;46702;48.370;10.794;2022-07-29T10:55:36;25.40;87.00
60868;DHT22;46702;48.370;10.794;2022-07-29T10:58:33;25.10;90.00
60868;DHT22;46702;48.370;10.794;2022-07-29T11:01:29;25.00;90.00
60868;DHT22;46702;48.370;10.794;2022-07-29T11:03:55;25.10;91.30
60868;DHT22;46702;48.370;10.794;2022-07-29T11:06:21;25.10;91.00
60868;DHT22;46702;48.370;10.794;2022-07-29T11:09:19;25.10;91.00
60868;DHT22;46702;48.370;10.794;2022-07-29T11:11:45;25.40;91.30
60868;DHT22;46702;48.370;10.794;2022-07-29T11:14:11;25.60;90.00
60868;DHT22;46702;48.370;10.794;2022-07-29T11:17:03;25.60;83.80
60868;DHT22;46702;48.370;10.794;2022-07-29T11:19:30;25.10;76.70
60868;DHT22;46702;48.370;10.794;2022-07-29T11:21:56;25.10;82.10
60868;DHT22;46702;48.370;10.794;2022-07-29T11:24:24;25.10;80.70
60868;DHT22;46702;48.370;10.794;2022-07-29T11:27:14;25.10;79.60
60868;DHT22;46702;48.370;10.794;2022-07-29T11:29:51;25.00;75.10
60868;DHT22;46702;48.370;10.794;2022-07-29T11:32:18;25.10;78.80
60868;DHT22;46702;48.370;10.794;2022-07-29T11:34:46;25.20;73.80
60868;DHT22;46702;48.370;10.794;2022-07-29T11:39:41;25.30;66.80
60868;DHT22;46702;48.370;10.794;2022-07-29T11:44:58;25.20;63.60
60868;DHT22;46702;48.370;10.794;2022-07-29T11:47:25;25.40;68.80
60868;DHT22;46702;48.370;10.794;2022-07-29T11:49:52;25.70;69.00
60868;DHT22;46702;48.370;10.794;2022-07-29T11:52:19;25.90;69.80
60868;DHT22;46702;48.370;10.794;2022-07-29T11:54:47;26.20;67.40
60868;DHT22;46702;48.370;10.794;2022-07-29T11:57:15;25.90;66.80
60868;DHT22;46702;48.370;10.794;2022-07-29T11:59:45;25.80;67.80
60868;DHT22;46702;48.370;10.794;2022-07-29T12:02:11;25.80;62.80
60868;DHT22;46702;48.370;10.794;2022-07-29T12:04:51;25.70;66.10
60868;DHT22;46702;48.370;10.794;2022-07-29T12:07:17;25.50;63.80
60868;DHT22;46702;48.370;10.794;2022-07-29T12:09:52;25.40;65.90
60868;DHT22;46702;48.370;10.794;2022-07-29T12:12:18;25.20;62.00
60868;DHT22;46702;48.370;10.794;2022-07-29T12:14:44;25.20;61.90
60868;DHT22;46702;48.370;10.794;2022-07-29T12:17:31;25.10;63.80
60868;DHT22;46702;48.370;10.794;2022-07-29T12:19:58;25.20;64.80
60868;DHT22;46702;48.370;10.794;2022-07-29T12:22:31;25.20;64.30
60868;DHT22;46702;48.370;10.794;2022-07-29T12:25:02;25.40;62.00
60868;DHT22;46702;48.370;10.794;2022-07-29T12:27:28;25.20;62.90
60868;DHT22;46702;48.370;10.794;2022-07-29T12:30:15;25.40;64.10
60868;DHT22;46702;48.370;10.794;2022-07-29T12:32:44;25.60;65.50
60868;DHT22;46702;48.370;10.794;2022-07-29T12:37:39;25.60;61.00
60868;DHT22;46702;48.370;10.794;2022-07-29T12:40:06;25.60;60.40
60868;DHT22;46702;48.370;10.794;2022-07-29T12:42:32;25.40;62.80
60868;DHT22;46702;48.370;10.794;2022-07-29T12:44:58;25.30;61.00
60868;DHT22;46702;48.370;10.794;2022-07-29T12:47:24;25.10;59.50
60868;DHT22;46702;48.370;10.794;2022-07-29T12:49:50;25.10;61.80
60868;DHT22;46702;48.370;10.794;2022-07-29T12:52:30;25.10;58.90
60868;DHT22;46702;48.370;10.794;2022-07-29T12:54:56;24.80;60.00
60868;DHT22;46702;48.370;10.794;2022-07-29T12:57:22;24.70;57.90
60868;DHT22;46702;48.370;10.794;2022-07-29T13:00:22;24.60;58.80
60868;DHT22;46702;48.370;10.794;2022-07-29T13:02:58;24.50;55.90
60868;DHT22;46702;48.370;10.794;2022-07-29T13:05:24;24.50;58.90
60868;DHT22;46702;48.370;10.794;2022-07-29T13:08:13;24.50;60.60
60868;DHT22;46702;48.370;10.794;2022-07-29T13:10:39;24.60;62.30
60868;DHT22;46702;48.370;10.794;2022-07-29T13:15:32;24.50;59.90
60868;DHT22;46702;48.370;10.794;2022-07-29T13:17:58;24.50;58.20
60868;DHT22;46702;48.370;10.794;2022-07-29T13:20:26;24.50;60.90
60868;DHT22;46702;48.370;10.794;2022-07-29T13:22:57;24.50;61.60
60868;DHT22;46702;48.370;10.794;2022-07-29T13:25:31;24.50;60.00
60868;DHT22;46702;48.370;10.794;2022-07-29T13:27:58;24.50;61.10
60868;DHT22;46702;48.370;10.794;2022-07-29T13:30:24;24.50;59.60
60868;DHT22;46702;48.370;10.794;2022-07-29T13:32:52;24.50;61.70
60868;DHT22;46702;48.370;10.794;2022-07-29T13:35:19;24.50;63.70
60868;DHT22;46702;48.370;10.794;2022-07-29T13:37:45;24.50;64.40
60868;DHT22;46702;48.370;10.794;2022-07-29T13:40:11;24.70;66.30
60868;DHT22;46702;48.370;10.794;2022-07-29T13:42:37;24.80;65.70
60868;DHT22;46702;48.370;10.794;2022-07-29T13:45:04;24.80;65.50
60868;DHT22;46702;48.370;10.794;2022-07-29T13:47:30;24.90;65.70
60868;DHT22;46702;48.370;10.794;2022-07-29T13:49:55;25.00;66.30
60868;DHT22;46702;48.370;10.794;2022-07-29T13:52:21;25.10;65.10
60868;DHT22;46702;48.370;10.794;2022-07-29T13:54:47;25.20;65.50
60868;DHT22;46702;48.370;10.794;2022-07-29T13:57:13;25.20;64.50
60868;DHT22;46702;48.370;10.794;2022-07-29T13:59:40;25.00;62.20
60868;DHT22;46702;48.370;10.794;2022-07-29T14:02:07;24.90;62.50
60868;DHT22;46702;48.370;10.794;2022-07-29T14:04:34;24.70;63.40
60868;DHT22;46702;48.370;10.794;2022-07-29T14:06:59;24.70;66.30
60868;DHT22;46702;48.370;10.794;2022-07-29T14:09:25;24.70;57.30
60868;DHT22;46702;48.370;10.794;2022-07-29T14:11:50;24.60;56.50
60868;DHT22;46702;48.370;10.794;2022-07-29T14:14:18;24.80;59.70
60868;DHT22;46702;48.370;10.794;2022-07-29T14:16:44;24.80;62.90
60868;DHT22;46702;48.370;10.794;2022-07-29T14:19:09;25.00;58.70
60868;DHT22;46702;48.370;10.794;2022-07-29T14:21:37;25.20;64.80
60868;DHT22;46702;48.370;10.794;2022-07-29T14:24:02;25.30;60.10
60868;DHT22;46702;48.370;10.794;2022-07-29T14:26:28;25.30;60.10
60868;DHT22;46702;48.370;10.794;2022-07-29T14:28:54;25.30;62.50
60868;DHT22;46702;48.370;10.794;2022-07-29T14:31:19;25.40;59.80
60868;DHT22;46702;48.370;10.794;2022-07-29T14:33:45;25.10;57.10
60868;DHT22;46702;48.370;10.794;2022-07-29T14:36:11;25.10;58.00
60868;DHT22;46702;48.370;10.794;2022-07-29T14:38:36;25.10;58.80
60868;DHT22;46702;48.370;10.794;2022-07-29T14:41:06;25.00;58.60
60868;DHT22;46702;48.370;10.794;2022-07-29T14:43:33;25.00;61.10
60868;DHT22;46702;48.370;10.794;2022-07-29T14:46:00;25.10;64.20
60868;DHT22;46702;48.370;10.794;2022-07-29T14:48:26;25.10;59.30
60868;DHT22;46702;48.370;10.794;2022-07-29T14:50:51;25.10;60.80
60868;DHT22;46702;48.370;10.794;2022-07-29T14:53:17;25.00;57.90
60868;DHT22;46702;48.370;10.794;2022-07-29T14:55:44;24.90;60.80
60868;DHT22;46702;48.370;10.794;2022-07-29T14:58:10;25.10;63.60
60868;DHT22;46702;48.370;10.794;2022-07-29T15:00:35;25.10;64.20
60868;DHT22;46702;48.370;10.794;2022-07-29T15:03:03;25.10;63.50
60868;DHT22;46702;48.370;10.794;2022-07-29T15:05:30;25.20;64.30
60868;DHT22;46702;48.370;10.794;2022-07-29T15:07:55;25.20;63.80
60868;DHT22;46702;48.370;10.794;2022-07-29T15:10:21;25.30;65.60
60868;DHT22;46702;48.370;10.794;2022-07-29T15:12:47;25.20;67.30
60868;DHT22;46702;48.370;10.794;2022-07-29T15:15:12;25.10;63.50
60868;DHT22;46702;48.370;10.794;2022-07-29T15:17:38;25.00;64.10
60868;DHT22;46702;48.370;10.794;2022-07-29T15:20:04;24.90;64.70
60868;DHT22;46702;48.370;10.794;2022-07-29T15:22:30;25.00;66.40
60868;DHT22;46702;48.370;10.794;2022-07-29T15:24:55;25.00;65.10
60868;DHT22;46702;48.370;10.794;2022-07-29T15:27:21;25.10;66.50
60868;DHT22;46702;48.370;10.794;2022-07-29T15:29:47;25.10;68.50
60868;DHT22;46702;48.370;10.794;2022-07-29T15:32:12;25.00;65.90
60868;DHT22;46702;48.370;10.794;2022-07-29T15:34:39;24.70;67.60
60868;DHT22;46702;48.370;10.794;2022-07-29T15:37:05;24.50;71.10
60868;DHT22;46702;48.370;10.794;2022-07-29T15:39:31;23.90;74.20
60868;DHT22;46702;48.370;10.794;2022-07-29T15:41:57;23.90;77.80
60868;DHT22;46702;48.370;10.794;2022-07-29T15:44:24;23.80;76.30
60868;DHT22;46702;48.370;10.794;2022-07-29T15:46:50;23.60;76.90
60868;DHT22;46702;48.370;10.794;2022-07-29T15:49:28;23.60;77.30
60868;DHT22;46702;48.370;10.794;2022-07-29T15:52:00;23.60;75.70